createdAt,value
2019-05-07T00:01:44.588Z,8.53
2019-05-07T00:04:12.942Z,8.18
2019-05-07T00:06:40.309Z,8.93
2019-05-07T00:09:12.196Z,8.25
2019-05-07T00:11:39.395Z,7.70
2019-05-07T00:14:06.638Z,8.45
2019-05-07T00:16:33.870Z,8.55
2019-05-07T00:19:02.076Z,7.45
2019-05-07T00:21:29.408Z,8.10
2019-05-07T00:23:56.684Z,7.58
2019-05-07T00:26:23.914Z,8.88
2019-05-07T00:28:52.674Z,8.18
2019-05-07T00:31:20.207Z,8.15
2019-05-07T00:33:47.431Z,9.05
2019-05-07T00:36:34.213Z,8.23
2019-05-07T00:39:13.090Z,8.08
2019-05-07T00:41:48.441Z,8.60
2019-05-07T00:44:15.937Z,8.28
2019-05-07T00:46:43.149Z,8.25
2019-05-07T00:49:12.574Z,7.97
2019-05-07T00:51:39.559Z,8.48
2019-05-07T00:54:07.377Z,8.48
2019-05-07T00:56:34.741Z,7.83
2019-05-07T00:59:02.325Z,8.50
2019-05-07T01:01:32.346Z,8.30
2019-05-07T01:04:02.461Z,7.72
2019-05-07T01:06:29.085Z,8.50
2019-05-07T01:08:56.311Z,8.55
2019-05-07T01:11:23.560Z,7.72
2019-05-07T01:13:52.025Z,8.23
2019-05-07T01:16:19.507Z,8.18
2019-05-07T01:18:46.740Z,7.47
2019-05-07T01:21:13.985Z,7.28
2019-05-07T01:23:42.792Z,8.00
2019-05-07T01:26:12.290Z,8.15
2019-05-07T01:28:57.052Z,8.53
2019-05-07T01:31:25.868Z,7.10
2019-05-07T01:34:02.392Z,7.58
2019-05-07T01:36:29.360Z,7.60
2019-05-07T01:38:56.584Z,7.67
2019-05-07T01:41:23.824Z,7.90
2019-05-07T01:43:52.371Z,7.60
2019-05-07T01:46:19.708Z,7.15
2019-05-07T01:48:46.958Z,7.40
2019-05-07T01:51:14.236Z,7.60
2019-05-07T01:53:43.012Z,8.05
2019-05-07T01:56:12.428Z,7.72
2019-05-07T01:58:39.520Z,8.13
2019-05-07T02:01:06.735Z,7.15
2019-05-07T02:03:53.595Z,8.03
2019-05-07T02:06:34.712Z,7.67
2019-05-07T02:09:15.605Z,6.90
2019-05-07T02:14:13.490Z,7.42
2019-05-07T02:16:41.920Z,6.87
2019-05-07T02:19:09.325Z,7.20
2019-05-07T02:21:36.791Z,6.85
2019-05-07T02:24:04.021Z,7.20
2019-05-07T02:26:32.163Z,6.95
2019-05-07T02:29:02.566Z,6.78
2019-05-07T02:31:33.732Z,7.28
2019-05-07T02:34:02.657Z,7.00
2019-05-07T02:36:29.783Z,7.45
2019-05-07T02:39:15.149Z,6.35
2019-05-07T02:41:44.203Z,6.60
2019-05-07T02:44:14.118Z,7.45
2019-05-07T02:47:04.071Z,6.65
2019-05-07T02:49:54.099Z,6.37
2019-05-07T02:52:44.087Z,7.12
2019-05-07T02:55:22.971Z,6.50
2019-05-07T02:57:49.423Z,7.08
2019-05-07T03:00:19.329Z,9.60
2019-05-07T03:02:45.901Z,8.18
2019-05-07T03:05:13.868Z,7.05
2019-05-07T03:07:42.815Z,7.03
2019-05-07T03:10:10.352Z,7.03
2019-05-07T03:12:37.578Z,6.47
2019-05-07T03:15:05.125Z,6.85
2019-05-07T03:17:33.382Z,8.00
2019-05-07T03:20:03.181Z,8.03
2019-05-07T03:22:33.656Z,8.33
2019-05-07T03:25:05.689Z,7.42
2019-05-07T03:27:34.149Z,7.05
2019-05-07T03:30:25.515Z,7.42
2019-05-07T03:32:56.718Z,6.30
2019-05-07T03:35:37.851Z,6.67
2019-05-07T03:38:05.535Z,6.78
2019-05-07T03:40:34.075Z,6.78
2019-05-07T03:43:05.541Z,7.20
2019-05-07T03:45:56.044Z,6.85
2019-05-07T03:48:24.726Z,7.10
2019-05-07T03:50:52.860Z,6.55
2019-05-07T03:53:23.064Z,7.20
2019-05-07T03:55:49.783Z,6.95
2019-05-07T03:58:17.022Z,6.78
2019-05-07T04:00:44.794Z,6.70
2019-05-07T04:03:13.981Z,7.20
2019-05-07T04:05:43.391Z,7.00
2019-05-07T04:08:13.228Z,7.37
2019-05-07T04:10:39.561Z,6.60
2019-05-07T04:13:06.781Z,7.20
2019-05-07T04:15:34.124Z,6.58
2019-05-07T04:18:03.667Z,6.60
2019-05-07T04:20:33.335Z,7.12
2019-05-07T04:23:00.308Z,7.05
2019-05-07T04:25:47.080Z,7.40
2019-05-07T04:28:35.960Z,6.97
2019-05-07T04:31:03.506Z,6.70
2019-05-07T04:33:35.643Z,7.47
2019-05-07T04:36:09.503Z,7.40
2019-05-07T04:38:36.857Z,7.12
2019-05-07T04:41:04.118Z,7.53
2019-05-07T04:43:33.609Z,6.62
2019-05-07T04:46:03.184Z,6.67
2019-05-07T04:48:30.115Z,6.30
2019-05-07T04:50:59.337Z,6.33
2019-05-07T04:53:26.608Z,6.08
2019-05-07T04:55:53.900Z,6.25
2019-05-07T04:58:23.993Z,6.30
2019-05-07T05:00:50.325Z,5.78
2019-05-07T05:03:20.072Z,6.20
2019-05-07T05:05:47.342Z,6.53
2019-05-07T05:08:14.603Z,6.75
2019-05-07T05:10:43.380Z,5.97
2019-05-07T05:13:12.868Z,6.28
2019-05-07T05:15:40.307Z,5.83
2019-05-07T05:18:07.575Z,6.33
2019-05-07T05:20:54.299Z,7.12
2019-05-07T05:23:43.924Z,6.33
2019-05-07T05:26:12.550Z,5.97
2019-05-07T05:28:41.929Z,6.22
2019-05-07T05:31:09.297Z,6.05
2019-05-07T05:33:36.515Z,6.15
2019-05-07T05:36:03.882Z,5.83
2019-05-07T05:38:32.949Z,5.53
2019-05-07T05:41:02.557Z,5.70
2019-05-07T05:43:48.319Z,5.67
2019-05-07T05:46:15.607Z,5.60
2019-05-07T05:48:42.824Z,6.10
2019-05-07T05:51:22.909Z,6.80
2019-05-07T05:54:01.966Z,6.70
2019-05-07T05:56:38.627Z,6.08
2019-05-07T05:59:24.228Z,5.97
2019-05-07T06:02:06.622Z,6.55
2019-05-07T06:04:44.080Z,6.70
2019-05-07T06:07:22.562Z,6.30
2019-05-07T06:10:04.104Z,6.92
2019-05-07T06:12:39.544Z,7.15
2019-05-07T06:15:15.389Z,6.87
2019-05-07T06:17:52.334Z,6.83
2019-05-07T06:20:39.501Z,6.80
2019-05-07T06:23:23.424Z,7.10
2019-05-07T06:25:52.340Z,6.92
2019-05-07T06:28:22.167Z,7.22
2019-05-07T06:30:48.907Z,7.15
2019-05-07T06:33:16.304Z,6.42
2019-05-07T06:35:43.584Z,6.65
2019-05-07T06:38:12.427Z,6.45
2019-05-07T06:41:02.710Z,7.05
2019-05-07T06:43:45.596Z,6.50
2019-05-07T06:46:12.809Z,7.47
2019-05-07T06:48:43.663Z,6.37
2019-05-07T06:51:09.223Z,6.75
2019-05-07T06:53:36.468Z,6.37
2019-05-07T06:56:04.170Z,6.58
2019-05-07T06:58:43.268Z,7.30
2019-05-07T07:01:39.133Z,6.80
2019-05-07T07:04:22.696Z,7.05
2019-05-07T07:07:01.919Z,6.28
2019-05-07T07:09:35.114Z,6.62
2019-05-07T07:12:04.620Z,7.62
2019-05-07T07:14:33.170Z,6.37
2019-05-07T07:17:02.320Z,6.83
2019-05-07T07:19:32.032Z,6.40
2019-05-07T07:21:58.830Z,6.97
2019-05-07T07:24:26.064Z,6.10
2019-05-07T07:26:53.211Z,6.30
2019-05-07T07:29:22.764Z,6.87
2019-05-07T07:31:53.540Z,6.10
2019-05-07T07:34:22.777Z,6.35
2019-05-07T07:37:08.474Z,7.15
2019-05-07T07:42:02.911Z,6.37
2019-05-07T07:44:30.394Z,6.50
2019-05-07T07:46:57.833Z,6.53
2019-05-07T07:49:25.299Z,6.92
2019-05-07T07:51:52.742Z,6.25
2019-05-07T07:54:22.437Z,6.90
2019-05-07T07:57:07.345Z,6.58
2019-05-07T08:00:03.480Z,6.67
2019-05-07T08:02:39.315Z,6.67
2019-05-07T08:05:06.926Z,6.35
2019-05-07T08:07:34.135Z,6.97
2019-05-07T08:10:02.620Z,6.97
2019-05-07T08:12:32.352Z,6.67
2019-05-07T08:15:14.759Z,7.10
2019-05-07T08:17:28.521Z,6.75
2019-05-07T08:19:55.763Z,6.65
2019-05-07T08:22:22.989Z,6.80
2019-05-07T08:24:51.932Z,6.90
2019-05-07T08:27:21.913Z,7.62
2019-05-07T08:29:48.803Z,7.90
2019-05-07T08:32:35.556Z,7.47
2019-05-07T08:35:22.828Z,7.50
2019-05-07T08:37:51.809Z,7.12
2019-05-07T08:40:19.243Z,7.40
2019-05-07T08:42:46.534Z,7.25
2019-05-07T08:45:45.550Z,7.37
2019-05-07T08:48:23.245Z,7.42
2019-05-07T08:50:52.410Z,7.22
2019-05-07T08:53:19.708Z,7.65
2019-05-07T08:55:46.984Z,8.08
2019-05-07T08:58:14.201Z,8.13
2019-05-07T09:00:41.826Z,7.60
2019-05-07T09:03:20.109Z,7.30
2019-05-07T09:05:38.242Z,7.65
2019-05-07T09:08:05.479Z,7.53
2019-05-07T09:10:32.764Z,7.12
2019-05-07T09:13:00.044Z,7.40
2019-05-07T09:15:27.339Z,6.97
2019-05-07T09:17:54.796Z,7.53
2019-05-07T09:20:22.877Z,6.95
2019-05-07T09:22:51.816Z,6.62
2019-05-07T09:25:19.309Z,7.28
2019-05-07T09:27:48.319Z,5.90
2019-05-07T09:30:33.825Z,6.30
2019-05-07T09:33:15.408Z,5.70
2019-05-07T09:35:46.488Z,5.95
2019-05-07T09:38:13.780Z,5.22
2019-05-07T09:40:42.126Z,5.15
2019-05-07T09:43:11.564Z,5.03
2019-05-07T09:45:38.826Z,4.35
2019-05-07T09:48:06.358Z,4.53
2019-05-07T09:50:33.617Z,4.55
2019-05-07T09:53:02.303Z,4.85
2019-05-07T09:55:32.311Z,5.17
2019-05-07T09:57:58.945Z,4.90
2019-05-07T10:00:26.468Z,5.33
2019-05-07T10:02:56.622Z,5.55
2019-05-07T10:05:22.875Z,6.00
2019-05-07T10:07:50.200Z,6.67
2019-05-07T10:10:17.612Z,7.03
2019-05-07T10:13:01.716Z,5.40
2019-05-07T10:15:29.117Z,5.65
2019-05-07T10:18:08.344Z,5.53
2019-05-07T10:20:35.612Z,5.78
2019-05-07T10:23:03.116Z,5.40
2019-05-07T10:25:39.172Z,5.47
2019-05-07T10:28:06.985Z,5.95
2019-05-07T10:30:34.494Z,4.80
2019-05-07T10:33:01.887Z,4.90
2019-05-07T10:35:31.087Z,4.37
2019-05-07T10:37:58.316Z,4.25
2019-05-07T10:40:25.775Z,4.30
2019-05-07T10:42:53.009Z,4.60
2019-05-07T10:45:32.293Z,4.42
2019-05-07T10:48:19.271Z,3.87
2019-05-07T10:50:47.761Z,4.08
2019-05-07T10:53:15.340Z,4.10
2019-05-07T10:55:45.443Z,5.15
2019-05-07T10:58:11.704Z,5.00
2019-05-07T11:00:38.975Z,4.75
2019-05-07T11:03:06.257Z,4.75
2019-05-07T11:05:33.612Z,3.92
2019-05-07T11:08:02.082Z,3.80
2019-05-07T11:10:29.704Z,4.45
2019-05-07T11:12:56.989Z,4.37
2019-05-07T11:15:24.204Z,4.40
2019-05-07T11:18:12.655Z,4.50
2019-05-07T11:20:49.779Z,4.42
2019-05-07T11:23:09.992Z,4.95
2019-05-07T11:25:37.272Z,4.37
2019-05-07T11:28:04.546Z,4.42
2019-05-07T11:30:32.147Z,4.55
2019-05-07T11:32:59.565Z,4.85
2019-05-07T11:35:26.792Z,4.97
2019-05-07T11:37:54.050Z,4.35
2019-05-07T11:40:23.097Z,4.17
2019-05-07T11:43:13.178Z,5.28
2019-05-07T11:45:48.624Z,4.58
2019-05-07T11:48:16.968Z,4.65
2019-05-07T11:51:04.382Z,4.55
2019-05-07T11:53:32.728Z,4.65
2019-05-07T11:56:02.548Z,5.00
2019-05-07T11:58:32.313Z,4.47
2019-05-07T12:01:05.923Z,4.78
2019-05-07T12:03:33.143Z,3.95
2019-05-07T12:06:02.024Z,4.15
2019-05-07T12:08:40.272Z,4.17
2019-05-07T12:10:58.840Z,4.70
2019-05-07T12:13:26.128Z,4.12
2019-05-07T12:15:53.331Z,4.65
2019-05-07T12:18:22.520Z,4.33
2019-05-07T12:20:49.727Z,4.30
2019-05-07T12:23:16.979Z,3.90
2019-05-07T12:25:44.248Z,3.95
2019-05-07T12:28:13.279Z,4.17
2019-05-07T12:31:00.155Z,3.40
2019-05-07T12:33:59.029Z,3.98
2019-05-07T12:36:26.552Z,3.90
2019-05-07T12:38:53.819Z,4.45
2019-05-07T12:41:33.143Z,4.35
2019-05-07T12:44:05.587Z,4.25
2019-05-07T12:46:33.524Z,4.12
2019-05-07T12:49:03.167Z,4.12
2019-05-07T12:51:37.128Z,4.30
2019-05-07T12:54:08.438Z,3.83
2019-05-07T12:56:35.700Z,4.08
2019-05-07T12:59:02.979Z,4.10
2019-05-07T13:01:47.105Z,3.87
2019-05-07T13:04:17.770Z,3.80
2019-05-07T13:06:57.457Z,4.10
2019-05-07T13:09:24.843Z,3.70
2019-05-07T13:11:52.582Z,3.85
2019-05-07T13:14:21.796Z,4.10
2019-05-07T13:16:49.316Z,4.40
2019-05-07T13:19:16.622Z,4.45
2019-05-07T13:21:49.920Z,4.85
2019-05-07T13:24:14.924Z,4.45
2019-05-07T13:26:42.794Z,3.98
2019-05-07T13:29:10.107Z,4.40
2019-05-07T13:31:38.005Z,4.20
2019-05-07T13:34:05.287Z,4.20
2019-05-07T13:36:33.032Z,4.37
2019-05-07T13:39:18.417Z,4.03
2019-05-07T13:42:03.032Z,4.10
2019-05-07T13:44:39.314Z,4.17
2019-05-07T13:47:24.276Z,3.70
2019-05-07T13:49:53.733Z,3.42
2019-05-07T13:52:22.681Z,3.85
2019-05-07T13:54:52.441Z,4.47
2019-05-07T13:57:19.608Z,4.28
2019-05-07T13:59:46.851Z,4.35
2019-05-07T14:02:15.643Z,3.60
2019-05-07T14:04:43.176Z,3.58
2019-05-07T14:07:12.512Z,3.42
2019-05-07T14:09:41.866Z,3.83
2019-05-07T14:12:08.741Z,4.15
2019-05-07T14:14:36.168Z,3.80
2019-05-07T14:17:03.892Z,4.42
2019-05-07T14:19:32.735Z,3.80
2019-05-07T14:22:00.337Z,4.17
2019-05-07T14:24:27.658Z,4.10
2019-05-07T14:26:54.920Z,3.92
2019-05-07T14:29:24.408Z,4.03
2019-05-07T14:32:02.275Z,4.03
2019-05-07T14:34:34.918Z,4.08
2019-05-07T14:37:24.305Z,4.40
2019-05-07T14:39:51.882Z,3.65
2019-05-07T14:42:26.491Z,3.92
2019-05-07T14:44:53.612Z,4.03
2019-05-07T14:47:22.289Z,3.80
2019-05-07T14:49:49.732Z,3.90
2019-05-07T14:52:29.059Z,4.45
2019-05-07T14:54:46.105Z,4.42
2019-05-07T14:57:13.432Z,4.03
2019-05-07T14:59:42.673Z,4.20
2019-05-07T15:02:11.896Z,3.90
2019-05-07T15:04:41.823Z,3.85
2019-05-07T15:07:09.413Z,3.85
2019-05-07T15:09:37.868Z,4.30
2019-05-07T15:12:05.124Z,4.17
2019-05-07T15:14:32.501Z,4.87
2019-05-07T15:17:06.368Z,4.12
2019-05-07T15:19:33.577Z,4.90
2019-05-07T15:22:19.485Z,4.10
2019-05-07T15:24:46.940Z,4.00
2019-05-07T15:27:14.301Z,4.10
2019-05-07T15:29:43.904Z,4.70
2019-05-07T15:32:12.576Z,4.55
2019-05-07T15:34:41.981Z,4.15
2019-05-07T15:37:09.548Z,4.67
2019-05-07T15:39:36.912Z,4.12
2019-05-07T15:42:04.333Z,4.12
2019-05-07T15:44:31.585Z,4.47
2019-05-07T15:47:02.575Z,4.30
2019-05-07T15:49:32.166Z,4.35
2019-05-07T15:52:01.821Z,4.55
2019-05-07T15:54:29.315Z,4.30
2019-05-07T15:56:59.443Z,3.75
2019-05-07T15:59:26.741Z,4.40
2019-05-07T16:02:02.446Z,4.05
2019-05-07T16:04:29.647Z,4.25
2019-05-07T16:06:58.698Z,4.00
2019-05-07T16:09:28.218Z,4.53
2019-05-07T16:11:56.109Z,4.33
2019-05-07T16:14:26.686Z,4.62
2019-05-07T16:19:29.389Z,4.97
2019-05-07T16:22:03.583Z,4.78
2019-05-07T16:24:29.253Z,4.70
2019-05-07T16:26:56.549Z,4.17
2019-05-07T16:29:23.845Z,4.20
2019-05-07T16:31:52.074Z,4.53
2019-05-07T16:34:22.043Z,4.08
2019-05-07T16:36:48.940Z,4.78
2019-05-07T16:39:16.293Z,5.00
2019-05-07T16:41:43.575Z,4.65
2019-05-07T16:44:12.254Z,4.28
2019-05-07T16:46:41.947Z,4.97
2019-05-07T16:49:09.180Z,4.78
2019-05-07T16:51:36.447Z,4.90
2019-05-07T16:54:03.758Z,4.62
2019-05-07T16:56:33.150Z,4.78
2019-05-07T16:59:07.461Z,4.75
2019-05-07T17:01:34.220Z,4.37
2019-05-07T17:04:02.794Z,4.60
2019-05-07T17:06:32.105Z,4.58
2019-05-07T17:09:02.649Z,4.47
2019-05-07T17:11:32.035Z,4.25
2019-05-07T17:13:59.396Z,4.65
2019-05-07T17:16:26.787Z,4.62
2019-05-07T17:18:54.040Z,4.37
2019-05-07T17:21:21.801Z,4.30
2019-05-07T17:23:51.907Z,4.35
2019-05-07T17:26:19.452Z,4.70
2019-05-07T17:28:46.740Z,4.55
2019-05-07T17:31:14.038Z,4.83
2019-05-07T17:33:42.447Z,5.08
2019-05-07T17:36:12.085Z,4.12
2019-05-07T17:38:39.611Z,4.40
2019-05-07T17:41:13.754Z,4.10
2019-05-07T17:43:36.083Z,4.22
2019-05-07T17:46:03.415Z,4.50
2019-05-07T17:48:32.282Z,3.77
2019-05-07T17:51:24.997Z,4.25
2019-05-07T17:53:59.791Z,4.25
2019-05-07T17:56:22.600Z,4.97
2019-05-07T17:58:52.102Z,4.10
2019-05-07T18:01:23.442Z,4.67
2019-05-07T18:03:52.031Z,4.35
2019-05-07T18:06:19.343Z,4.15
2019-05-07T18:08:46.672Z,4.45
2019-05-07T18:11:20.942Z,3.92
2019-05-07T18:13:43.158Z,4.22
2019-05-07T18:16:24.407Z,4.12
2019-05-07T18:18:52.055Z,4.47
2019-05-07T18:21:19.404Z,4.90
2019-05-07T18:23:46.744Z,4.85
2019-05-07T18:26:27.245Z,4.20
2019-05-07T18:28:43.311Z,4.50
2019-05-07T18:31:12.585Z,3.70
2019-05-07T18:33:58.420Z,3.67
2019-05-07T18:36:25.779Z,4.25
2019-05-07T18:38:53.039Z,4.40
2019-05-07T18:41:22.155Z,4.20
2019-05-07T18:43:52.068Z,4.60
2019-05-07T18:46:18.691Z,3.90
2019-05-07T18:48:46.005Z,4.50
2019-05-07T18:51:13.296Z,4.08
2019-05-07T18:53:42.449Z,4.47
2019-05-07T18:56:09.780Z,4.03
2019-05-07T18:58:37.116Z,4.62
2019-05-07T19:01:08.632Z,4.70
2019-05-07T19:03:35.905Z,4.35
2019-05-07T19:06:03.306Z,4.65
2019-05-07T19:08:32.291Z,4.60
2019-05-07T19:10:59.761Z,4.55
2019-05-07T19:13:27.032Z,4.10
2019-05-07T19:15:56.606Z,4.33
2019-05-07T19:18:23.510Z,4.35
2019-05-07T19:20:53.006Z,4.45
2019-05-07T19:23:22.325Z,4.90
2019-05-07T19:25:52.073Z,4.37
2019-05-07T19:28:18.878Z,4.40
2019-05-07T19:30:46.132Z,4.17
2019-05-07T19:33:13.507Z,5.03
2019-05-07T19:35:41.909Z,4.78
2019-05-07T19:38:09.359Z,4.78
2019-05-07T19:40:36.772Z,4.70
2019-05-07T19:43:04.026Z,4.70
2019-05-07T19:45:31.318Z,5.15
2019-05-07T19:47:58.587Z,5.62
2019-05-07T19:50:25.938Z,5.30
2019-05-07T19:52:53.273Z,4.95
2019-05-07T19:55:21.966Z,5.15
2019-05-07T19:57:54.023Z,5.00
2019-05-07T20:00:23.084Z,4.97
2019-05-07T20:02:52.716Z,4.47
2019-05-07T20:05:20.119Z,4.90
2019-05-07T20:07:47.397Z,5.15
2019-05-07T20:10:19.247Z,3.90
2019-05-07T20:12:46.552Z,4.30
2019-05-07T20:15:13.849Z,4.10
2019-05-07T20:17:41.938Z,4.75
2019-05-07T20:20:09.569Z,4.25
2019-05-07T20:22:36.848Z,4.53
2019-05-07T20:25:16.438Z,4.10
2019-05-07T20:27:35.556Z,4.12
2019-05-07T20:30:03.250Z,4.37
2019-05-07T20:32:32.857Z,3.83
2019-05-07T20:34:59.886Z,4.37
2019-05-07T20:37:27.127Z,4.55
2019-05-07T20:39:54.500Z,4.50
2019-05-07T20:42:23.176Z,4.65
2019-05-07T20:44:51.982Z,4.58
2019-05-07T20:47:19.411Z,4.22
2019-05-07T20:49:46.704Z,4.95
2019-05-07T20:52:14.339Z,4.05
2019-05-07T20:55:27.991Z,4.50
2019-05-07T20:57:46.494Z,5.72
2019-05-07T21:00:22.868Z,5.87
2019-05-07T21:03:09.771Z,4.90
2019-05-07T21:05:37.016Z,4.60
2019-05-07T21:08:04.464Z,5.00
2019-05-07T21:10:32.895Z,5.03
2019-05-07T21:13:00.293Z,4.20
2019-05-07T21:15:27.568Z,4.20
2019-05-07T21:17:54.834Z,4.05
2019-05-07T21:20:22.837Z,4.50
2019-05-07T21:22:51.910Z,4.42
2019-05-07T21:25:19.320Z,4.28
2019-05-07T21:27:46.580Z,4.65
2019-05-07T21:30:17.379Z,4.00
2019-05-07T21:32:43.171Z,4.40
2019-05-07T21:35:10.619Z,4.62
2019-05-07T21:37:37.911Z,4.97
2019-05-07T21:40:05.184Z,4.90
2019-05-07T21:42:32.490Z,4.95
2019-05-07T21:45:01.959Z,5.00
2019-05-07T21:47:29.495Z,5.40
2019-05-07T21:49:56.732Z,5.50
2019-05-07T21:52:25.811Z,4.72
2019-05-07T21:55:09.192Z,5.12
2019-05-07T21:57:58.804Z,5.15
2019-05-07T22:00:58.282Z,5.10
2019-05-07T22:03:25.616Z,4.75
2019-05-07T22:05:52.904Z,4.70
2019-05-07T22:08:21.950Z,4.72
2019-05-07T22:10:49.319Z,5.33
2019-05-07T22:13:16.593Z,4.90
2019-05-07T22:15:43.880Z,4.83
2019-05-07T22:18:12.061Z,5.10
2019-05-07T22:20:39.496Z,4.85
2019-05-07T22:23:06.767Z,6.37
2019-05-07T22:25:34.049Z,5.45
2019-05-07T22:28:01.902Z,5.90
2019-05-07T22:30:44.117Z,6.25
2019-05-07T22:33:17.908Z,6.40
2019-05-07T22:35:45.185Z,5.42
2019-05-07T22:38:12.442Z,6.03
2019-05-07T22:40:39.761Z,5.12
2019-05-07T22:43:07.004Z,5.03
2019-05-07T22:45:34.264Z,6.15
2019-05-07T22:48:02.807Z,5.67
2019-05-07T22:50:30.464Z,5.85
2019-05-07T22:52:57.672Z,5.85
2019-05-07T22:55:25.056Z,5.40
2019-05-07T22:58:00.124Z,5.50
2019-05-07T23:00:39.229Z,5.20
2019-05-07T23:03:06.469Z,5.28
2019-05-07T23:05:33.633Z,5.20
2019-05-07T23:08:02.385Z,5.20
2019-05-07T23:10:29.796Z,5.92
2019-05-07T23:12:57.017Z,5.97
2019-05-07T23:15:24.108Z,6.03
2019-05-07T23:17:51.429Z,6.03
2019-05-07T23:20:18.715Z,6.05
2019-05-07T23:22:46.012Z,6.55
2019-05-07T23:25:13.328Z,5.95
2019-05-07T23:27:41.984Z,6.15
2019-05-07T23:30:09.611Z,6.47
2019-05-07T23:32:38.007Z,5.92
2019-05-07T23:35:05.682Z,7.05
2019-05-07T23:37:33.249Z,6.33
2019-05-07T23:40:03.968Z,6.60
2019-05-07T23:42:33.955Z,6.58
2019-05-07T23:45:02.016Z,6.80
2019-05-07T23:47:31.700Z,6.60
2019-05-07T23:49:58.505Z,6.33
2019-05-07T23:52:25.884Z,6.75
2019-05-07T23:54:53.154Z,7.97
2019-05-07T23:57:22.644Z,6.78
2019-05-07T23:59:49.647Z,6.55
